Time;durP1;ratioP1;P1;durP2;ratioP2;P2;SDS_P1;SDS_P2;PMS_P1;PMS_P2;Temp;Humidity;BMP_temperature;BMP_pressure;BME280_temperature;BME280_humidity;BME280_pressure;Samples;Min_cycle;Max_cycle;Signal;HPM_P1;HPM_P2
2022/01/15 00:00:59;;;;;;;14.47;6.75;;;;;;;1.02;77.39;98057.97;1686981;85;21431;-79
2022/01/15 00:03:27;;;;;;;14.68;6.65;;;;;;;0.99;77.45;98061.88;1678725;85;21017;-79
2022/01/15 00:05:59;;;;;;;13.10;6.47;;;;;;;0.95;77.59;98071.39;1656572;87;21067;-79
2022/01/15 00:08:24;;;;;;;15.35;6.97;;;;;;;0.94;77.78;98076.16;1655792;85;21492;-79
2022/01/15 00:10:51;;;;;;;13.98;6.35;;;;;;;0.92;77.87;98082.67;1677561;85;21450;-79
2022/01/15 00:13:30;;;;;;;13.72;6.55;;;;;;;0.94;78.02;98087.91;1639009;87;21441;-78
2022/01/15 00:16:11;;;;;;;14.90;6.30;;;;;;;0.96;77.98;98091.42;1635059;87;21077;-79
2022/01/15 00:19:03;;;;;;;14.30;6.45;;;;;;;1.00;77.97;98101.46;1635177;87;21052;-79
2022/01/15 00:21:17;;;;;;;15.90;6.90;;;;;;;1.02;77.78;98096.70;1634347;87;21097;-79
2022/01/15 00:23:43;;;;;;;15.55;7.25;;;;;;;1.04;77.85;98111.94;1655822;87;21048;-79
2022/01/15 00:26:10;;;;;;;15.15;7.08;;;;;;;1.08;77.82;98120.67;1656835;86;21029;-79
2022/01/15 00:28:36;;;;;;;14.70;6.70;;;;;;;1.10;77.91;98126.80;1648091;87;21792;-79
2022/01/15 00:31:03;;;;;;;14.05;6.60;;;;;;;1.13;77.71;98125.50;1697117;84;21470;-79
2022/01/15 00:33:30;;;;;;;14.70;6.90;;;;;;;1.15;77.48;98117.28;1699454;84;21020;-79
2022/01/15 00:35:58;;;;;;;16.87;7.55;;;;;;;1.20;77.37;98117.76;1701786;84;21071;-79
2022/01/15 00:38:24;;;;;;;15.95;7.58;;;;;;;1.22;77.70;98141.72;1701792;84;21024;-79
2022/01/15 00:40:51;;;;;;;14.40;7.62;;;;;;;1.24;77.37;98137.83;1715791;82;21144;-79
2022/01/15 00:43:19;;;;;;;16.35;7.33;;;;;;;1.24;77.30;98133.45;1731561;83;21011;-79
2022/01/15 00:45:46;;;;;;;14.75;8.13;;;;;;;1.21;77.28;98151.72;1731452;83;21016;-79
2022/01/15 00:48:14;;;;;;;15.48;7.95;;;;;;;1.18;77.34;98153.87;1731549;83;21061;-78
2022/01/15 00:50:40;;;;;;;18.50;8.58;;;;;;;1.18;77.34;98158.20;1730859;83;21007;-79
2022/01/15 00:53:07;;;;;;;12.73;6.47;;;;;;;1.13;77.46;98185.99;1731404;83;21005;-79
2022/01/15 00:55:33;;;;;;;14.33;7.28;;;;;;;1.12;77.37;98186.41;1731648;83;21045;-78
2022/01/15 00:58:00;;;;;;;17.92;8.45;;;;;;;1.13;77.19;98199.91;1731539;83;20985;-78
2022/01/15 01:00:27;;;;;;;18.40;8.75;;;;;;;1.13;77.14;98184.23;1722446;83;21028;-79
2022/01/15 01:02:54;;;;;;;17.92;8.08;;;;;;;1.13;77.19;98175.10;1637881;88;21089;-79
2022/01/15 01:05:21;;;;;;;13.98;7.47;;;;;;;1.13;77.05;98162.50;1674570;86;21013;-79
2022/01/15 01:07:49;;;;;;;19.40;8.90;;;;;;;1.08;77.17;98172.02;1637772;88;21048;-79
2022/01/15 01:23:30;;;;;;;17.35;7.60;;;;;;;0.86;77.43;98183.48;1639073;88;21013;-79
2022/01/15 01:26:22;;;;;;;14.75;7.87;;;;;;;0.82;77.52;98184.33;1689522;85;21059;-79
2022/01/15 01:28:45;;;;;;;18.05;8.85;;;;;;;0.76;77.91;98186.42;1686537;85;21076;-78
2022/01/15 01:31:17;;;;;;;18.50;7.90;;;;;;;0.73;77.85;98176.83;1668978;85;21045;-78
2022/01/15 01:33:43;;;;;;;19.37;8.75;;;;;;;0.72;77.84;98180.30;1688325;84;21049;-78
2022/01/15 01:38:49;;;;;;;21.25;9.13;;;;;;;0.72;77.92;98199.87;1696747;84;21068;-78
2022/01/15 01:41:14;;;;;;;19.67;8.45;;;;;;;0.72;77.90;98192.45;1698293;84;21492;-77
2022/01/15 01:46:19;;;;;;;16.27;8.28;;;;;;;0.70;77.94;98189.82;1697920;84;21091;-78
2022/01/15 01:48:42;;;;;;;19.37;8.25;;;;;;;0.67;77.97;98198.93;1635376;87;21057;-77
2022/01/15 01:51:19;;;;;;;16.23;8.18;;;;;;;0.64;78.12;98206.28;1676879;85;21097;-77
2022/01/15 01:53:41;;;;;;;16.10;7.97;;;;;;;0.68;78.07;98190.66;1639197;87;21094;-77
2022/01/15 01:56:07;;;;;;;16.50;8.05;;;;;;;0.63;78.21;98195.37;1679051;85;21040;-77
2022/01/15 01:58:33;;;;;;;15.70;8.25;;;;;;;0.62;78.23;98205.37;1640012;87;21046;-78
2022/01/15 02:01:00;;;;;;;18.95;8.40;;;;;;;0.58;78.14;98213.14;1676955;85;21048;-78
2022/01/15 02:03:27;;;;;;;17.62;8.53;;;;;;;0.55;78.32;98205.27;1673998;86;23517;-78
2022/01/15 02:05:54;;;;;;;16.55;7.58;;;;;;;0.55;78.45;98201.35;1637780;88;21088;-80
2022/01/15 02:08:21;;;;;;;16.15;8.45;;;;;;;0.51;78.95;98202.60;1674354;86;21490;-80
2022/01/15 02:10:47;;;;;;;15.93;7.75;;;;;;;0.54;78.47;98203.07;1638178;87;21088;-79
2022/01/15 02:13:14;;;;;;;19.90;9.28;;;;;;;0.53;78.62;98209.16;1659904;86;21056;-78
2022/01/15 02:15:40;;;;;;;23.85;8.73;;;;;;;0.50;78.54;98209.13;1660106;86;21035;-79
2022/01/15 02:18:07;;;;;;;16.55;8.73;;;;;;;0.46;78.60;98211.23;1660025;86;21116;-78
2022/01/15 02:20:58;;;;;;;18.20;8.25;;;;;;;0.44;78.73;98209.91;1666363;85;21062;-78
2022/01/15 02:26:05;;;;;;;19.77;8.50;;;;;;;0.39;78.61;98218.09;1679029;85;21025;-78
2022/01/15 02:28:38;;;;;;;23.98;9.35;;;;;;;0.34;78.68;98220.61;1639864;87;21090;-78
2022/01/15 02:31:11;;;;;;;22.27;8.73;;;;;;;0.32;78.63;98218.42;1678012;85;21097;-78
2022/01/15 02:33:41;;;;;;;17.12;8.78;;;;;;;0.28;79.29;98220.52;1638976;87;21838;-78
2022/01/15 02:36:17;;;;;;;19.35;9.18;;;;;;;0.26;79.65;98223.10;1664177;85;20997;-78
2022/01/15 02:38:45;;;;;;;22.35;9.48;;;;;;;0.26;79.22;98235.28;1674227;86;21431;-78
2022/01/15 02:41:13;;;;;;;23.05;9.38;;;;;;;0.24;79.28;98235.25;1676397;85;21024;-78
2022/01/15 02:43:40;;;;;;;18.35;8.73;;;;;;;0.23;79.21;98237.83;1679165;85;21474;-78
2022/01/15 02:46:20;;;;;;;20.35;9.95;;;;;;;0.22;79.07;98233.47;1678983;85;21044;-78
2022/01/15 02:48:51;;;;;;;20.17;9.05;;;;;;;0.20;79.03;98245.17;1639789;87;21016;-79
2022/01/15 02:51:22;;;;;;;20.88;9.80;;;;;;;0.20;78.99;98242.56;1677364;85;20989;-79
2022/01/15 02:53:54;;;;;;;21.52;9.88;;;;;;;0.15;79.07;98241.62;1678746;85;21089;-79
2022/01/15 02:56:17;;;;;;;17.92;8.48;;;;;;;0.12;79.14;98241.55;1678315;85;21509;-79
2022/01/15 02:58:44;;;;;;;20.85;9.73;;;;;;;0.09;79.06;98249.34;1679197;85;21073;-79
2022/01/15 03:01:10;;;;;;;20.75;9.60;;;;;;;0.04;79.22;98255.77;1639837;87;21062;-79
2022/01/15 03:03:36;;;;;;;21.35;9.45;;;;;;;-0.02;79.00;98257.86;1679114;85;21069;-79
2022/01/15 03:06:04;;;;;;;17.70;9.30;;;;;;;-0.03;79.53;98262.59;1639815;87;21041;-79
2022/01/15 03:08:32;;;;;;;21.50;10.08;;;;;;;-0.03;79.37;98257.38;1678744;85;21021;-79
2022/01/15 03:10:59;;;;;;;21.57;9.93;;;;;;;-0.04;79.55;98254.33;1640356;87;20998;-79
2022/01/15 03:13:26;;;;;;;22.90;10.00;;;;;;;-0.02;79.33;98259.58;1640148;87;21089;-79
2022/01/15 03:15:52;;;;;;;23.73;9.38;;;;;;;-0.06;79.32;98261.67;1640340;87;21050;-79
2022/01/15 03:18:18;;;;;;;18.52;9.53;;;;;;;-0.08;79.49;98259.48;1640340;87;21054;-79
2022/01/15 03:20:45;;;;;;;25.32;9.50;;;;;;;-0.09;79.39;98259.89;1684833;85;21463;-79
2022/01/15 03:23:11;;;;;;;24.45;10.05;;;;;;;-0.10;79.57;98252.94;1700824;84;21060;-79
2022/01/15 03:25:37;;;;;;;19.42;9.03;;;;;;;-0.08;79.59;98252.52;1699631;84;21016;-79
2022/01/15 03:28:04;;;;;;;17.48;8.50;;;;;;;-0.08;79.41;98253.83;1696060;84;21016;-78
2022/01/15 03:30:31;;;;;;;21.68;9.80;;;;;;;-0.08;79.54;98242.55;1700830;84;21405;-78
2022/01/15 03:32:57;;;;;;;19.02;9.08;;;;;;;-0.10;79.73;98250.33;1688520;85;21052;-78
2022/01/15 03:35:24;;;;;;;18.90;8.60;;;;;;;-0.12;79.61;98246.83;1645682;85;21020;-78
2022/01/15 03:37:51;;;;;;;21.82;9.18;;;;;;;-0.15;79.64;98251.98;1702888;84;20993;-78
2022/01/15 03:40:18;;;;;;;24.35;10.18;;;;;;;-0.20;79.58;98251.88;1716118;84;21100;-78
2022/01/15 03:42:45;;;;;;;22.13;9.23;;;;;;;-0.27;79.56;98247.42;1716270;84;21392;-79
2022/01/15 03:45:14;;;;;;;22.77;9.65;;;;;;;-0.33;79.61;98246.88;1716192;83;21076;-78
2022/01/15 03:47:44;;;;;;;22.45;10.30;;;;;;;-0.36;79.56;98247.26;1715383;84;21008;-78
2022/01/15 03:50:12;;;;;;;23.38;9.23;;;;;;;-0.44;79.78;98249.31;1709053;84;20994;-77
2022/01/15 03:52:39;;;;;;;23.95;10.03;;;;;;;-0.50;79.96;98249.62;1703219;84;21028;-78
2022/01/15 03:55:09;;;;;;;19.92;9.48;;;;;;;-0.57;80.51;98255.13;1703086;84;21497;-78
2022/01/15 03:57:37;;;;;;;24.57;10.35;;;;;;;-0.67;80.83;98257.55;1695302;83;21049;-77
2022/01/15 04:00:18;;;;;;;20.12;9.53;;;;;;;-0.68;80.54;98257.51;1733902;83;21065;-77
2022/01/15 04:02:48;;;;;;;27.02;10.10;;;;;;;-0.72;80.38;98262.20;1733079;83;21032;-78
2022/01/15 04:05:16;;;;;;;22.17;10.18;;;;;;;-0.80;80.36;98262.94;1733763;83;21075;-78
2022/01/15 04:07:42;;;;;;;21.52;9.83;;;;;;;-0.90;80.59;98277.02;1723028;83;21020;-78
2022/01/15 04:10:11;;;;;;;23.02;9.75;;;;;;;-0.99;81.26;98275.11;1701078;84;20973;-78
2022/01/15 04:12:39;;;;;;;28.40;10.32;;;;;;;-1.01;80.98;98279.39;1673084;85;21057;-77
2022/01/15 04:15:09;;;;;;;22.07;9.33;;;;;;;-1.06;80.80;98276.70;1733645;83;21453;-77
2022/01/15 04:17:36;;;;;;;21.25;9.88;;;;;;;-1.14;80.86;98280.84;1729654;83;21067;-77
2022/01/15 04:20:05;;;;;;;24.92;10.35;;;;;;;-1.22;81.09;98280.27;1702973;84;21072;-77
2022/01/15 04:22:32;;;;;;;20.88;9.73;;;;;;;-1.28;80.88;98271.45;1703030;84;21095;-78
2022/01/15 04:24:58;;;;;;;26.85;10.78;;;;;;;-1.36;80.94;98287.73;1703161;84;20996;-79
2022/01/15 04:27:24;;;;;;;23.67;9.95;;;;;;;-1.42;80.85;98291.95;1704555;83;21040;-78
2022/01/15 04:29:51;;;;;;;24.37;10.65;;;;;;;-1.49;80.96;98290.92;1729207;83;21013;-78
2022/01/15 04:32:18;;;;;;;24.57;8.90;;;;;;;-1.56;81.18;98300.70;1715868;83;21012;-78
2022/01/15 04:34:45;;;;;;;21.97;9.98;;;;;;;-1.59;81.28;98296.31;1692988;84;21131;-77
2022/01/15 04:37:19;;;;;;;21.93;9.28;;;;;;;-1.64;81.27;98297.92;1683467;85;21032;-78
2022/01/15 04:39:42;;;;;;;19.65;9.25;;;;;;;-1.69;81.41;98307.33;1714059;84;21048;-78
2022/01/15 04:42:10;;;;;;;21.85;10.18;;;;;;;-1.69;81.54;98307.33;1691227;84;21020;-78
2022/01/15 04:44:38;;;;;;;21.93;8.58;;;;;;;-1.72;81.90;98308.13;1695134;84;21020;-78
2022/01/15 04:47:05;;;;;;;21.23;8.48;;;;;;;-1.69;81.87;98308.63;1704051;84;21005;-78
2022/01/15 04:49:32;;;;;;;22.60;9.78;;;;;;;-1.66;82.14;98311.31;1715127;84;21001;-78
2022/01/15 04:52:02;;;;;;;24.15;9.28;;;;;;;-1.66;81.85;98315.21;1706626;84;21044;-79
2022/01/15 04:54:28;;;;;;;18.65;8.73;;;;;;;-1.74;81.61;98325.42;1694411;84;21052;-78
2022/01/15 04:56:55;;;;;;;18.80;8.63;;;;;;;-1.80;82.03;98328.73;1704466;84;21480;-78
2022/01/15 04:59:23;;;;;;;19.60;9.20;;;;;;;-1.78;82.11;98323.58;1693764;85;21026;-78
2022/01/15 05:01:51;;;;;;;15.85;7.67;;;;;;;-1.78;81.93;98326.18;1693995;85;21021;-78
2022/01/15 05:04:19;;;;;;;22.10;9.30;;;;;;;-1.83;81.97;98323.89;1693803;84;21022;-78
2022/01/15 05:06:45;;;;;;;27.60;9.65;;;;;;;-1.85;81.86;98329.04;1691224;84;21080;-77
2022/01/15 05:09:12;;;;;;;23.12;9.73;;;;;;;-1.96;81.78;98335.25;1685813;85;20997;-77
2022/01/15 05:11:55;;;;;;;22.67;9.38;;;;;;;-2.04;81.99;98333.75;1685447;85;21049;-77
2022/01/15 05:14:17;;;;;;;19.62;9.93;;;;;;;-2.12;81.92;98336.55;1699259;84;21451;-76
2022/01/15 05:16:45;;;;;;;20.35;8.80;;;;;;;-2.18;82.14;98335.99;1715041;84;21005;-76
2022/01/15 05:19:12;;;;;;;19.23;8.75;;;;;;;-2.25;82.26;98326.27;1715613;84;21025;-77
2022/01/15 05:21:38;;;;;;;18.07;7.08;;;;;;;-2.27;82.03;98331.44;1678859;85;21001;-76
2022/01/15 05:24:06;;;;;;;18.23;8.30;;;;;;;-2.30;82.51;98335.23;1651463;87;21098;-77
2022/01/15 05:26:34;;;;;;;20.43;8.58;;;;;;;-2.30;82.25;98338.23;1648547;87;21069;-76
2022/01/15 05:29:02;;;;;;;25.30;9.18;;;;;;;-2.35;82.23;98339.83;1644464;87;21013;-76
2022/01/15 05:31:28;;;;;;;18.52;9.08;;;;;;;-2.39;82.39;98338.47;1688874;83;21040;-77
2022/01/15 05:33:55;;;;;;;17.02;8.43;;;;;;;-2.43;82.33;98343.11;1691121;85;21091;-78
2022/01/15 05:36:22;;;;;;;19.75;8.45;;;;;;;-2.48;82.48;98352.89;1687635;84;21013;-78
2022/01/15 05:38:49;;;;;;;21.25;7.80;;;;;;;-2.52;82.26;98360.58;1689354;85;21057;-77
2022/01/15 05:41:15;;;;;;;20.27;7.65;;;;;;;-2.56;82.39;98362.65;1661531;86;21476;-77
2022/01/15 05:43:42;;;;;;;15.32;7.25;;;;;;;-2.62;82.85;98355.96;1708865;84;21025;-77
2022/01/15 05:46:08;;;;;;;18.10;8.10;;;;;;;-2.61;83.68;98359.45;1708111;84;21005;-78
2022/01/15 05:48:35;;;;;;;16.17;7.50;;;;;;;-2.60;82.81;98363.39;1663991;86;21039;-78
2022/01/15 05:51:01;;;;;;;15.95;7.70;;;;;;;-2.63;82.83;98351.62;1671480;84;21068;-79
2022/01/15 05:53:28;;;;;;;16.25;7.50;;;;;;;-2.64;82.98;98360.24;1683936;84;21040;-77
2022/01/15 05:55:54;;;;;;;15.80;6.97;;;;;;;-2.68;82.82;98360.58;1679110;85;21481;-77
2022/01/15 05:58:20;;;;;;;20.80;7.87;;;;;;;-2.71;82.78;98360.48;1704742;84;21054;-77
2022/01/15 06:00:47;;;;;;;14.50;7.15;;;;;;;-2.75;82.77;98360.36;1708965;84;21005;-77
2022/01/15 06:03:13;;;;;;;16.50;7.62;;;;;;;-2.80;83.07;98369.28;1709014;84;21387;-77
2022/01/15 06:05:40;;;;;;;21.17;7.85;;;;;;;-2.84;82.94;98377.40;1696084;84;21089;-77
2022/01/15 06:08:06;;;;;;;22.07;8.58;;;;;;;-2.87;83.20;98377.73;1633460;88;21428;-77
2022/01/15 06:10:34;;;;;;;24.63;9.85;;;;;;;-2.89;83.00;98385.45;1679782;85;21017;-77
2022/01/15 06:13:01;;;;;;;24.35;10.38;;;;;;;-2.91;82.86;98383.22;1694428;85;21020;-77
2022/01/15 06:15:28;;;;;;;29.07;11.10;;;;;;;-2.95;82.96;98386.58;1689518;84;21061;-77
2022/01/15 06:17:54;;;;;;;24.02;10.15;;;;;;;-2.97;83.02;98393.41;1679182;85;21025;-77
2022/01/15 06:20:21;;;;;;;27.37;10.10;;;;;;;-3.02;82.94;98397.17;1679117;85;21037;-77
2022/01/15 06:22:47;;;;;;;25.75;9.55;;;;;;;-3.03;83.17;98404.49;1678774;85;21006;-77
2022/01/15 06:25:14;;;;;;;28.83;10.75;;;;;;;-3.05;83.29;98397.06;1680772;84;21508;-77
2022/01/15 06:27:40;;;;;;;26.68;9.58;;;;;;;-3.08;83.64;98406.92;1679123;85;20994;-77
2022/01/15 06:30:07;;;;;;;27.67;11.18;;;;;;;-3.07;83.61;98403.93;1635713;85;21019;-77
2022/01/15 06:32:36;;;;;;;19.07;7.30;;;;;;;-3.07;83.42;98415.16;1646158;87;21092;-77
2022/01/15 06:35:09;;;;;;;23.05;8.70;;;;;;;-3.09;83.42;98411.66;1644462;87;21037;-77
2022/01/15 06:37:36;;;;;;;21.77;8.58;;;;;;;-3.08;83.50;98414.70;1640862;87;21044;-77
2022/01/15 06:40:05;;;;;;;19.10;7.47;;;;;;;-3.07;83.35;98413.86;1661787;86;21027;-77
2022/01/15 06:42:32;;;;;;;25.25;9.20;;;;;;;-3.06;84.01;98417.35;1661557;86;20988;-77
2022/01/15 06:44:58;;;;;;;16.87;7.53;;;;;;;-3.02;83.60;98411.84;1661262;85;21188;-77
2022/01/15 06:47:25;;;;;;;17.57;7.70;;;;;;;-3.02;83.61;98417.92;1679147;85;21005;-77
2022/01/15 06:49:53;;;;;;;19.75;6.35;;;;;;;-3.01;83.71;98417.48;1622189;86;21013;-77
2022/01/15 06:52:21;;;;;;;19.00;6.55;;;;;;;-2.97;83.52;98418.94;1640787;87;22186;-77
2022/01/15 06:54:48;;;;;;;16.93;7.15;;;;;;;-2.92;83.78;98418.66;1640525;87;21610;-78
2022/01/15 06:57:14;;;;;;;14.98;6.37;;;;;;;-2.85;83.56;98430.12;1643979;87;21053;-78
2022/01/15 06:59:44;;;;;;;15.50;5.28;;;;;;;-2.81;83.44;98426.79;1644272;87;21025;-77
2022/01/15 07:02:10;;;;;;;8.03;4.17;;;;;;;-2.77;83.58;98431.65;1679355;85;21015;-77
2022/01/15 07:04:38;;;;;;;14.18;4.83;;;;;;;-2.64;83.44;98432.90;1686639;85;21070;-77
2022/01/15 07:07:05;;;;;;;17.02;5.35;;;;;;;-2.53;83.30;98428.04;1678341;85;21043;-77
2022/01/15 07:09:32;;;;;;;14.68;4.50;;;;;;;-2.37;83.17;98434.97;1650561;87;21013;-77
2022/01/15 07:11:59;;;;;;;9.03;3.85;;;;;;;-2.21;82.91;98437.61;1651911;87;22151;-79
2022/01/15 07:14:26;;;;;;;9.55;4.28;;;;;;;-2.13;82.59;98436.98;1643134;86;21429;-79
2022/01/15 07:16:52;;;;;;;7.47;4.15;;;;;;;-2.00;82.21;98434.30;1635384;88;20994;-79
2022/01/15 07:19:19;;;;;;;12.75;4.35;;;;;;;-1.92;81.62;98429.31;1635174;88;21069;-78
2022/01/15 07:21:46;;;;;;;13.93;4.40;;;;;;;-1.82;81.71;98438.25;1635275;88;21441;-78
2022/01/15 07:24:13;;;;;;;10.48;4.35;;;;;;;-1.74;81.33;98439.32;1644354;87;21433;-78
2022/01/15 07:26:40;;;;;;;14.35;4.00;;;;;;;-1.66;79.84;98444.72;1661547;85;21513;-80
2022/01/15 07:29:14;;;;;;;9.85;3.85;;;;;;;-1.57;80.69;98450.60;1658857;86;20977;-79
2022/01/15 07:31:35;;;;;;;10.60;3.62;;;;;;;-1.44;79.06;98463.50;1675695;84;21430;-78
2022/01/15 07:34:03;;;;;;;11.22;2.90;;;;;;;-1.29;76.39;98453.89;1679134;84;21024;-78
2022/01/15 07:36:30;;;;;;;10.28;3.95;;;;;;;-1.20;76.46;98454.13;1707921;83;21449;-79
2022/01/15 07:38:56;;;;;;;9.00;3.67;;;;;;;-1.07;76.69;98457.05;1715706;83;20997;-79
2022/01/15 07:41:23;;;;;;;7.80;2.85;;;;;;;-0.97;76.43;98450.33;1706391;84;21033;-77
2022/01/15 07:43:50;;;;;;;11.28;3.30;;;;;;;-0.85;74.12;98445.84;1732676;82;21027;-77
2022/01/15 07:46:18;;;;;;;35.10;13.98;;;;;;;-0.75;74.76;98455.61;1734254;83;21080;-77
2022/01/15 07:48:44;;;;;;;15.05;5.75;;;;;;;-0.66;74.84;98454.97;1734421;82;21043;-77
2022/01/15 07:51:11;;;;;;;13.45;4.15;;;;;;;-0.60;74.33;98456.81;1728324;82;21107;-77
2022/01/15 07:53:37;;;;;;;10.43;4.28;;;;;;;-0.55;73.54;98456.08;1720702;82;20985;-77
2022/01/15 07:56:04;;;;;;;10.00;3.47;;;;;;;-0.46;73.19;98455.84;1709546;83;21011;-77
2022/01/15 07:58:31;;;;;;;11.18;3.50;;;;;;;-0.38;73.45;98459.47;1701851;84;21481;-78
2022/01/15 08:00:57;;;;;;;7.50;3.42;;;;;;;-0.30;73.90;98460.52;1657463;86;20959;-78
2022/01/15 08:03:23;;;;;;;9.70;3.05;;;;;;;-0.24;74.28;98462.80;1652884;86;21029;-79
2022/01/15 08:05:50;;;;;;;11.35;3.60;;;;;;;-0.18;72.41;98462.92;1691689;84;21428;-75
2022/01/15 08:08:17;;;;;;;8.63;3.17;;;;;;;-0.11;71.78;98465.24;1699814;83;21020;-75
2022/01/15 08:10:44;;;;;;;8.38;2.85;;;;;;;-0.05;72.04;98454.94;1734221;83;21019;-78
2022/01/15 08:13:12;;;;;;;11.90;3.45;;;;;;;0.03;71.68;98469.02;1719193;83;21044;-78
2022/01/15 08:15:39;;;;;;;7.83;2.77;;;;;;;0.07;71.15;98475.16;1679232;84;21019;-78
2022/01/15 08:18:05;;;;;;;6.65;2.98;;;;;;;0.15;71.59;98477.50;1721489;82;21043;-78
2022/01/15 08:20:32;;;;;;;10.55;3.30;;;;;;;0.21;70.29;98472.41;1707890;82;21021;-76
2022/01/15 08:22:58;;;;;;;10.60;3.22;;;;;;;0.29;69.43;98473.00;1723813;82;21031;-77
2022/01/15 08:25:25;;;;;;;9.95;3.08;;;;;;;0.36;69.82;98478.77;1732448;83;21499;-77
2022/01/15 08:27:56;;;;;;;7.30;2.70;;;;;;;0.40;69.16;98477.98;1697368;84;21433;-78
2022/01/15 08:30:23;;;;;;;6.90;2.42;;;;;;;0.46;70.19;98478.53;1691166;84;21032;-78
2022/01/15 08:32:49;;;;;;;9.25;2.87;;;;;;;0.47;67.09;98480.28;1660000;86;21030;-78
2022/01/15 08:35:16;;;;;;;7.70;2.77;;;;;;;0.57;66.89;98480.91;1659667;86;21043;-78
2022/01/15 08:37:42;;;;;;;6.85;2.98;;;;;;;0.61;67.23;98477.51;1660176;86;21383;-78
2022/01/15 08:40:13;;;;;;;12.18;2.60;;;;;;;0.68;67.62;98482.83;1660072;86;21094;-76
2022/01/15 08:42:40;;;;;;;7.53;2.72;;;;;;;0.71;68.07;98488.97;1674252;85;21578;-77
2022/01/15 08:45:09;;;;;;;7.92;2.83;;;;;;;0.74;67.27;98495.56;1674344;85;20994;-77
2022/01/15 08:47:40;;;;;;;21.90;9.30;;;;;;;0.79;66.86;98489.14;1674377;85;21069;-77
2022/01/15 08:50:10;;;;;;;10.03;3.05;;;;;;;0.84;66.53;98499.64;1673763;86;21073;-77
2022/01/15 08:52:39;;;;;;;12.00;2.77;;;;;;;0.87;65.53;98496.66;1633500;88;21058;-76
2022/01/15 08:55:06;;;;;;;8.25;3.10;;;;;;;0.90;64.84;98508.88;1633191;88;21554;-76
2022/01/15 08:57:34;;;;;;;6.45;2.37;;;;;;;0.96;66.13;98516.84;1631770;88;21118;-76
2022/01/15 09:00:04;;;;;;;7.25;2.75;;;;;;;0.96;63.57;98533.80;1633592;88;21034;-76
2022/01/15 09:02:31;;;;;;;13.08;2.58;;;;;;;1.02;64.56;98502.98;1678006;85;21022;-76
2022/01/15 09:04:57;;;;;;;6.58;2.12;;;;;;;1.03;64.32;98501.72;1679067;85;21017;-77
2022/01/15 09:07:24;;;;;;;6.85;2.67;;;;;;;1.07;65.06;98497.42;1678499;85;21466;-75
2022/01/15 09:09:51;;;;;;;4.20;2.12;;;;;;;1.08;61.80;98512.22;1658590;85;21033;-75
2022/01/15 09:12:17;;;;;;;10.98;2.52;;;;;;;1.15;61.36;98502.77;1641591;87;21038;-76
2022/01/15 09:14:44;;;;;;;9.73;2.15;;;;;;;1.18;62.88;98506.33;1649913;86;20985;-75
2022/01/15 09:17:11;;;;;;;5.35;2.17;;;;;;;1.23;63.73;98509.00;1643280;86;21500;-82
2022/01/15 09:19:38;;;;;;;7.53;2.20;;;;;;;1.31;61.71;98499.98;1660971;85;21561;-82
2022/01/15 09:22:08;;;;;;;9.15;3.00;;;;;;;1.30;61.91;98513.45;1649252;86;21084;-82
2022/01/15 09:24:33;;;;;;;5.72;2.35;;;;;;;1.34;62.51;98517.02;1659996;86;21065;-82
2022/01/15 09:27:03;;;;;;;5.92;2.15;;;;;;;1.40;61.66;98506.66;1660275;86;21025;-82
2022/01/15 09:32:13;;;;;;;5.20;2.10;;;;;;;1.45;59.92;98501.08;1681395;84;21017;-82
2022/01/15 09:34:40;;;;;;;4.28;1.90;;;;;;;1.53;58.84;98511.64;1658449;86;21073;-82
2022/01/15 09:37:07;;;;;;;7.65;2.30;;;;;;;1.57;58.10;98505.61;1657327;87;21421;-82
2022/01/15 09:39:35;;;;;;;7.50;2.30;;;;;;;1.61;58.36;98510.89;1640953;87;21081;-82
2022/01/15 09:42:02;;;;;;;7.78;2.22;;;;;;;1.65;58.95;98493.07;1636158;87;21053;-82
2022/01/15 09:44:29;;;;;;;5.37;2.02;;;;;;;1.68;57.20;98489.20;1638958;86;21149;-81
2022/01/15 09:46:56;;;;;;;5.00;1.55;;;;;;;1.74;57.15;98490.59;1646801;86;21423;-82
2022/01/15 09:49:24;;;;;;;3.62;1.67;;;;;;;1.79;55.16;98493.28;1633421;87;21394;-81
2022/01/15 09:51:52;;;;;;;4.42;1.90;;;;;;;1.84;56.13;98509.46;1642778;87;21427;-82
2022/01/15 09:54:19;;;;;;;20.15;8.15;;;;;;;1.88;57.53;98508.20;1641866;87;21036;-83
2022/01/15 09:56:48;;;;;;;7.40;1.77;;;;;;;1.93;56.38;98518.30;1687892;85;21020;-83
2022/01/15 09:59:15;;;;;;;4.72;2.12;;;;;;;2.00;57.24;98504.88;1691460;83;21017;-83
2022/01/15 10:01:43;;;;;;;6.05;2.45;;;;;;;2.03;54.48;98511.02;1684574;84;21017;-83
2022/01/15 10:04:09;;;;;;;5.95;2.10;;;;;;;2.10;54.69;98493.27;1683807;85;21077;-83
2022/01/15 10:06:36;;;;;;;8.05;2.25;;;;;;;2.15;54.91;98502.91;1683353;85;21551;-80
2022/01/15 10:09:07;;;;;;;4.50;1.85;;;;;;;2.19;55.38;98496.41;1687630;83;21056;-82
2022/01/15 10:11:48;;;;;;;4.67;2.00;;;;;;;2.27;54.53;98496.92;1685268;85;21069;-84
2022/01/15 10:14:36;;;;;;;5.97;1.90;;;;;;;2.31;55.14;98495.69;1637586;87;21492;-83
2022/01/15 10:17:23;;;;;;;7.45;2.33;;;;;;;2.36;54.84;98503.16;1702103;84;21018;-84
2022/01/15 10:19:50;;;;;;;7.50;2.00;;;;;;;2.38;52.31;98497.95;1665862;86;21029;-83
2022/01/15 10:22:21;;;;;;;5.75;2.42;;;;;;;2.44;54.29;98487.54;1687792;84;21548;-84
2022/01/15 10:25:05;;;;;;;20.35;3.02;;;;;;;2.53;53.69;98488.52;1663265;85;21014;-84
2022/01/15 10:27:41;;;;;;;;;;;;;;;2.56;54.25;98488.52;1666278;84;21074;-84
2022/01/15 10:30:14;;;;;;;7.92;2.50;;;;;;;2.55;52.48;98482.44;1713788;83;20105;-83
2022/01/15 10:33:03;;;;;;;5.30;2.25;;;;;;;2.60;54.16;98482.47;1688898;83;21108;-83
2022/01/15 10:35:42;;;;;;;5.45;2.20;;;;;;;2.66;53.42;98474.70;1693924;85;21060;-82
2022/01/15 10:38:17;;;;;;;4.45;1.87;;;;;;;2.66;54.38;98478.63;1665642;86;21107;-83
2022/01/15 10:40:48;;;;;;;6.42;1.80;;;;;;;2.73;53.14;98484.77;1652511;86;21522;-83
2022/01/15 10:43:18;;;;;;;4.85;1.85;;;;;;;2.80;53.70;98461.73;1675652;86;21112;-83
2022/01/15 10:45:55;;;;;;;5.35;2.40;;;;;;;2.84;50.78;98480.55;1675644;86;21091;-83
2022/01/15 10:48:27;;;;;;;5.10;2.42;;;;;;;2.88;52.85;98470.55;1688252;84;21002;-83
2022/01/15 10:51:01;;;;;;;6.10;2.00;;;;;;;2.90;52.31;98470.53;1697206;84;21028;-83
2022/01/15 10:53:40;;;;;;;6.55;2.00;;;;;;;2.94;50.09;98462.30;1696517;84;21046;-83
2022/01/15 10:56:10;;;;;;;4.45;2.20;;;;;;;3.51;52.59;98462.73;1666632;85;21058;-83
2022/01/15 10:58:38;;;;;;;5.40;2.55;;;;;;;4.72;51.74;98451.83;1693541;84;21147;-82
2022/01/15 11:01:06;;;;;;;8.68;2.70;;;;;;;5.75;46.69;98441.24;1654864;86;21081;-83
2022/01/15 11:03:38;;;;;;;6.47;2.50;;;;;;;6.73;44.55;98428.09;1686974;84;21079;-83
2022/01/15 11:06:05;;;;;;;5.50;2.10;;;;;;;7.22;41.76;98426.80;1639625;87;21117;-81
2022/01/15 11:08:38;;;;;;;5.35;2.70;;;;;;;8.36;46.84;98412.34;1689447;84;21009;-80
2022/01/15 11:11:08;;;;;;;7.62;2.35;;;;;;;8.93;36.51;98420.34;1695715;84;21087;-80
2022/01/15 11:13:46;;;;;;;13.95;6.12;;;;;;;9.44;34.55;98417.27;1658909;85;21513;-79
2022/01/15 11:16:15;;;;;;;24.23;12.88;;;;;;;10.08;39.38;98410.77;1693633;84;21002;-78
2022/01/15 11:18:54;;;;;;;6.53;2.40;;;;;;;10.51;35.95;98408.98;1694564;84;20974;-82
2022/01/15 11:21:23;;;;;;;6.20;2.40;;;;;;;11.13;36.09;98403.52;1690723;84;20997;-81
2022/01/15 11:23:50;;;;;;;6.67;2.90;;;;;;;10.47;30.22;98405.55;1687060;85;21008;-79
2022/01/15 11:26:28;;;;;;;7.55;3.20;;;;;;;10.99;31.59;98398.58;1687189;85;21052;-76
2022/01/15 11:28:57;;;;;;;6.05;2.25;;;;;;;11.86;33.89;98398.95;1695375;84;21009;-75
2022/01/15 11:31:34;;;;;;;7.12;2.67;;;;;;;11.21;28.65;98400.67;1694059;83;21009;-75
2022/01/15 11:34:05;;;;;;;5.10;2.30;;;;;;;11.92;31.76;98397.89;1698464;84;21075;-76
2022/01/15 11:36:39;;;;;;;7.90;2.60;;;;;;;12.66;28.53;98385.55;1690760;84;21001;-75
2022/01/15 11:39:10;;;;;;;;;;;;;;;13.43;34.85;98383.91;1688136;85;21056;-75
2022/01/15 11:41:46;;;;;;;5.12;2.25;;;;;;;13.56;29.46;98371.06;1693292;85;20124;-75
2022/01/15 11:44:19;;;;;;;4.90;2.30;;;;;;;13.69;32.04;98367.94;1642047;87;21082;-75
2022/01/15 11:46:52;;;;;;;4.12;2.00;;;;;;;14.25;29.38;98368.55;1675938;86;21489;-75
2022/01/15 11:49:35;;;;;;;5.10;1.90;;;;;;;14.68;28.64;98367.31;1658858;86;21045;-75
2022/01/15 11:52:14;;;;;;;4.58;1.65;;;;;;;14.95;27.10;98363.61;1613915;89;21069;-74
2022/01/15 11:54:55;;;;;;;3.52;1.65;;;;;;;15.13;28.14;98366.85;1662782;84;21064;-75
2022/01/15 11:57:26;;;;;;;4.87;2.22;;;;;;;15.42;27.83;98365.19;1685451;85;21033;-75
2022/01/15 11:59:57;;;;;;;3.98;1.80;;;;;;;15.53;26.40;98360.72;1641998;87;21046;-75
2022/01/15 12:02:37;;;;;;;6.10;2.30;;;;;;;15.88;27.01;98359.60;1682620;85;21056;-75